Time;durP1;ratioP1;P1;durP2;ratioP2;P2;SDS_P1;SDS_P2;PMS_P1;PMS_P2;Temp;Humidity;BMP_temperature;BMP_pressure;BME280_temperature;BME280_humidity;BME280_pressure;Samples;Min_cycle;Max_cycle;Signal;HPM_P1;HPM_P2
2023/10/01 00:00:09;;;;;;;4.73;4.23;;;;;;;17.42;62.61;95001.38;5153243;27;20620;-45
2023/10/01 00:02:38;;;;;;;11.07;4.60;;;;;;;17.52;62.46;95016.66;5152945;27;20206;-46
2023/10/01 00:05:05;;;;;;;10.20;4.13;;;;;;;17.50;62.51;95011.66;5153267;27;20187;-44
2023/10/01 00:07:36;;;;;;;5.10;4.50;;;;;;;17.48;62.54;95008.44;5152965;27;20294;-45
2023/10/01 00:10:09;;;;;;;6.20;3.93;;;;;;;17.47;62.34;95003.44;5152935;27;20595;-46
2023/10/01 00:12:37;;;;;;;6.13;4.17;;;;;;;17.46;62.38;94994.09;5151887;27;20206;-45
2023/10/01 00:15:05;;;;;;;6.47;4.30;;;;;;;17.47;62.33;94999.06;5153449;27;20190;-45
2023/10/01 00:17:32;;;;;;;7.63;4.30;;;;;;;17.45;62.31;95005.41;5153249;27;20240;-46
2023/10/01 00:20:00;;;;;;;6.80;4.37;;;;;;;17.44;62.39;94994.28;5152767;27;20302;-44
2023/10/01 00:22:27;;;;;;;7.43;4.70;;;;;;;17.42;62.44;94995.41;5153258;27;20187;-45
2023/10/01 00:24:56;;;;;;;5.47;3.93;;;;;;;17.41;62.56;94993.81;5152936;27;20180;-44
2023/10/01 00:27:23;;;;;;;6.70;4.60;;;;;;;17.40;62.64;94994.75;5152887;27;20284;-44
2023/10/01 00:29:50;;;;;;;7.90;4.53;;;;;;;17.41;62.82;94999.78;5152869;27;20579;-46
2023/10/01 00:32:17;;;;;;;6.13;4.43;;;;;;;17.37;62.83;94997.72;5152847;27;20242;-44
2023/10/01 00:34:44;;;;;;;10.37;4.40;;;;;;;17.34;63.00;95006.59;5152555;27;20183;-45
2023/10/01 00:37:11;;;;;;;5.63;3.80;;;;;;;17.30;62.85;94993.22;5152243;27;20226;-43
2023/10/01 00:39:38;;;;;;;4.50;4.00;;;;;;;17.26;63.17;94999.69;5152702;27;20644;-44
2023/10/01 00:42:07;;;;;;;5.70;4.37;;;;;;;17.24;63.05;94998.28;5152534;27;20183;-44
2023/10/01 00:44:34;;;;;;;7.77;4.03;;;;;;;17.22;63.10;95002.78;5152785;27;20224;-45
2023/10/01 00:47:04;;;;;;;13.40;4.67;;;;;;;17.22;63.02;95003.59;5152593;27;20188;-44
2023/10/01 00:49:36;;;;;;;4.30;3.90;;;;;;;17.21;62.92;95004.56;5152396;27;20187;-44
2023/10/01 00:52:03;;;;;;;5.90;4.07;;;;;;;17.16;63.28;95000.91;5152285;27;20579;-44
2023/10/01 00:54:30;;;;;;;9.67;3.90;;;;;;;17.12;63.17;94997.84;5152216;27;20187;-44
2023/10/01 00:56:57;;;;;;;6.20;4.10;;;;;;;17.05;63.56;94995.16;5152161;27;20636;-45
2023/10/01 00:59:26;;;;;;;4.13;3.80;;;;;;;17.02;63.51;95000.66;5152085;27;20675;-45
2023/10/01 01:01:53;;;;;;;6.50;4.67;;;;;;;16.99;63.61;94998.41;5151930;27;20263;-46
2023/10/01 01:04:22;;;;;;;5.63;3.80;;;;;;;16.99;63.60;94997.59;5151956;27;20198;-44
2023/10/01 01:06:50;;;;;;;9.43;4.20;;;;;;;16.97;63.63;94996.97;5152185;27;20176;-44
2023/10/01 01:09:20;;;;;;;7.00;4.10;;;;;;;16.95;63.53;94991.97;5151714;27;20195;-44
2023/10/01 01:11:47;;;;;;;7.87;4.20;;;;;;;16.93;63.56;94996.50;5151902;27;20187;-45
2023/10/01 01:14:15;;;;;;;5.63;4.17;;;;;;;16.91;63.85;94985.53;5151906;27;20558;-44
2023/10/01 01:16:48;;;;;;;8.70;3.73;;;;;;;16.75;63.72;94970.09;5151711;27;20192;-44
2023/10/01 01:19:15;;;;;;;11.07;4.20;;;;;;;16.86;63.62;94992.97;5151583;27;20192;-44
2023/10/01 01:21:42;;;;;;;4.60;3.90;;;;;;;16.85;63.65;94988.00;5151767;27;20180;-45
2023/10/01 01:24:11;;;;;;;8.53;4.70;;;;;;;16.87;63.65;94991.19;5151661;27;20192;-46
2023/10/01 01:26:41;;;;;;;5.60;4.73;;;;;;;16.87;63.59;94989.41;5151692;27;20250;-46
2023/10/01 01:29:18;;;;;;;7.80;4.27;;;;;;;16.89;63.40;94986.69;5151132;27;20227;-45
2023/10/01 01:31:46;;;;;;;5.67;3.80;;;;;;;16.89;63.22;94984.91;5151491;27;20195;-45
2023/10/01 01:34:13;;;;;;;6.27;3.97;;;;;;;16.90;63.36;94990.88;5151507;27;20278;-45
2023/10/01 01:36:42;;;;;;;9.53;4.37;;;;;;;16.75;63.43;94962.34;5151721;27;20230;-45
2023/10/01 01:39:26;;;;;;;6.37;4.17;;;;;;;16.90;63.52;94990.88;5151487;27;20187;-45
2023/10/01 01:41:54;;;;;;;9.33;4.37;;;;;;;16.88;63.27;94990.22;5150947;27;20521;-45
2023/10/01 01:44:23;;;;;;;6.00;4.37;;;;;;;16.89;63.37;94990.06;5151127;27;20667;-46
2023/10/01 01:46:50;;;;;;;6.60;4.10;;;;;;;16.89;63.37;94987.47;5151419;27;20213;-45
2023/10/01 01:49:19;;;;;;;9.90;4.77;;;;;;;16.89;63.32;94984.09;5151310;27;20196;-45
2023/10/01 01:51:57;;;;;;;6.83;4.73;;;;;;;16.87;63.29;94984.25;5151287;27;20192;-45
2023/10/01 01:54:27;;;;;;;6.67;3.97;;;;;;;16.87;63.39;94989.41;5151569;27;20183;-44
2023/10/01 01:56:55;;;;;;;7.93;4.40;;;;;;;16.86;63.22;94995.56;5150779;27;20223;-44
2023/10/01 01:59:24;;;;;;;5.80;4.37;;;;;;;16.85;63.43;94988.78;5151051;27;20677;-45
2023/10/01 02:01:52;;;;;;;6.93;4.23;;;;;;;16.82;63.31;94990.91;5151005;27;20214;-45
2023/10/01 02:04:20;;;;;;;5.07;4.00;;;;;;;16.80;63.39;94984.13;5151235;27;20179;-46
2023/10/01 02:06:47;;;;;;;6.43;4.43;;;;;;;16.80;63.48;94983.34;5151297;27;20557;-44
2023/10/01 02:09:19;;;;;;;4.87;4.43;;;;;;;16.79;63.47;94979.13;5150479;27;20575;-45
2023/10/01 02:11:48;;;;;;;7.67;4.87;;;;;;;16.79;63.56;94979.91;5150980;27;20194;-44
2023/10/01 02:14:30;;;;;;;5.93;4.27;;;;;;;16.79;63.46;94981.69;5150753;27;20187;-44
2023/10/01 02:17:03;;;;;;;8.53;4.30;;;;;;;16.79;63.24;94979.91;5150624;27;20180;-45
2023/10/01 02:19:30;;;;;;;5.93;4.10;;;;;;;16.67;63.24;94959.78;5150720;27;20211;-45
2023/10/01 02:22:03;;;;;;;10.83;4.50;;;;;;;16.76;63.28;94982.84;5150613;27;20187;-46
2023/10/01 02:24:44;;;;;;;6.63;4.40;;;;;;;16.78;63.28;94983.47;5150747;27;20184;-45
2023/10/01 02:27:13;;;;;;;7.53;4.80;;;;;;;16.77;63.29;94989.63;5150479;27;20309;-44
2023/10/01 02:30:11;;;;;;;5.83;4.03;;;;;;;16.77;63.29;94976.72;5150455;27;20492;-45
2023/10/01 02:32:34;;;;;;;7.97;4.77;;;;;;;16.77;63.28;94978.50;5150066;27;20188;-46
2023/10/01 02:35:33;;;;;;;4.60;3.93;;;;;;;16.76;63.25;94974.31;5150168;27;20180;-44
2023/10/01 02:37:49;;;;;;;6.30;4.30;;;;;;;16.75;63.21;94976.09;5150400;27;20252;-46
2023/10/01 02:40:18;;;;;;;7.43;4.07;;;;;;;16.72;63.35;94973.84;5150423;27;20733;-44
2023/10/01 02:42:49;;;;;;;6.67;4.53;;;;;;;16.75;63.26;94983.00;5150043;27;20248;-45
2023/10/01 02:45:30;;;;;;;6.57;4.27;;;;;;;16.73;63.19;94983.19;5150591;27;20189;-43
2023/10/01 02:50:38;;;;;;;10.37;4.50;;;;;;;16.72;63.25;94981.59;5149810;27;20203;-44
2023/10/01 02:53:04;;;;;;;6.97;4.60;;;;;;;16.70;63.44;94980.91;5150305;27;20198;-53
2023/10/01 02:55:31;;;;;;;6.20;3.83;;;;;;;16.70;63.43;94974.94;5149873;27;20211;-43
2023/10/01 02:58:17;;;;;;;8.23;4.50;;;;;;;16.68;63.34;94975.09;5150583;27;20340;-46
2023/10/01 03:00:44;;;;;;;8.43;4.47;;;;;;;16.66;63.51;94979.63;5150187;27;20216;-44
2023/10/01 03:03:15;;;;;;;6.53;4.57;;;;;;;16.67;63.58;94975.28;5150683;27;20183;-47
2023/10/01 03:05:45;;;;;;;6.47;4.17;;;;;;;16.64;63.61;94979.00;5149905;27;20191;-46
2023/10/01 03:08:40;;;;;;;7.50;4.67;;;;;;;16.62;63.67;94978.34;5150150;27;20671;-45
2023/10/01 03:11:02;;;;;;;6.83;4.63;;;;;;;16.61;63.81;94975.94;5149856;27;20724;-44
2023/10/01 03:13:32;;;;;;;5.93;4.50;;;;;;;16.53;63.95;94971.59;5149956;27;20231;-46
2023/10/01 03:18:55;;;;;;;8.33;4.13;;;;;;;16.54;64.16;94978.41;5148853;27;20328;-46
2023/10/01 03:24:03;;;;;;;8.87;4.60;;;;;;;16.51;64.30;94973.56;5149616;27;20276;-46
2023/10/01 03:26:33;;;;;;;6.13;4.37;;;;;;;16.46;64.52;94979.22;5149956;27;20660;-45
2023/10/01 03:29:21;;;;;;;5.53;4.13;;;;;;;16.44;64.59;94975.19;5149598;27;20229;-44
2023/10/01 03:31:53;;;;;;;4.63;4.07;;;;;;;16.42;64.44;94979.72;5150315;27;20184;-44
2023/10/01 03:34:29;;;;;;;5.03;4.07;;;;;;;16.41;64.33;94975.56;5150165;27;20187;-44
2023/10/01 03:36:58;;;;;;;8.20;4.23;;;;;;;16.39;64.58;94975.69;5150171;27;20187;-46
2023/10/01 03:39:26;;;;;;;8.67;4.43;;;;;;;16.36;64.81;94976.03;5149790;27;20261;-45
2023/10/01 03:41:53;;;;;;;7.17;4.33;;;;;;;16.36;64.84;94981.19;5149709;27;20223;-46
2023/10/01 03:44:59;;;;;;;10.97;4.63;;;;;;;16.41;65.43;94980.72;5149619;27;20291;-45
2023/10/01 03:47:08;;;;;;;9.47;4.57;;;;;;;16.35;65.56;94977.00;5152873;27;20690;-44
2023/10/01 03:49:37;;;;;;;7.60;5.67;;;;;;;16.28;66.20;94978.66;5153774;27;20195;-46
2023/10/01 03:52:04;;;;;;;9.07;5.23;;;;;;;16.22;66.65;94981.88;5155418;27;20184;-45
2023/10/01 03:57:16;;;;;;;5.27;4.77;;;;;;;16.04;67.08;94979.50;5152994;27;20191;-45
2023/10/01 03:59:51;;;;;;;6.57;4.57;;;;;;;16.01;67.56;94990.94;5153375;27;20194;-45
2023/10/01 04:02:28;;;;;;;5.90;5.07;;;;;;;15.97;67.86;94992.22;5153529;27;20632;-46
2023/10/01 04:04:57;;;;;;;7.10;5.13;;;;;;;15.85;68.29;94990.19;5153774;27;20183;-45
2023/10/01 04:07:26;;;;;;;7.80;4.90;;;;;;;15.83;68.75;94990.31;5153167;27;20183;-44
2023/10/01 04:09:54;;;;;;;10.80;5.80;;;;;;;15.82;69.14;95000.81;5153467;27;20367;-44
2023/10/01 04:12:28;;;;;;;12.47;5.33;;;;;;;15.77;69.62;95003.88;5153372;27;20191;-43
2023/10/01 04:15:01;;;;;;;6.57;4.53;;;;;;;15.57;69.65;94975.00;5153320;27;20596;-45
2023/10/01 04:17:29;;;;;;;8.60;5.43;;;;;;;15.51;69.92;94970.50;5153137;27;20188;-44
2023/10/01 04:20:00;;;;;;;8.87;5.47;;;;;;;15.67;70.09;95000.63;5153319;27;20180;-44
2023/10/01 04:22:29;;;;;;;6.93;5.50;;;;;;;15.61;70.74;94996.91;5153333;27;20244;-43
2023/10/01 04:25:00;;;;;;;5.87;5.17;;;;;;;15.59;70.98;94998.03;5153321;27;20188;-44
2023/10/01 04:27:30;;;;;;;7.70;5.60;;;;;;;15.59;70.93;94991.13;5152847;27;20692;-45
2023/10/01 04:30:00;;;;;;;8.23;5.43;;;;;;;15.44;70.99;94984.97;5152804;27;20660;-45
2023/10/01 04:32:27;;;;;;;10.23;5.27;;;;;;;15.48;70.91;95004.31;5153127;27;20194;-43
2023/10/01 04:34:56;;;;;;;5.83;5.30;;;;;;;15.43;71.06;95004.00;5152485;27;20576;-44
2023/10/01 04:37:36;;;;;;;7.83;5.20;;;;;;;15.44;71.14;95013.31;5152785;27;20179;-44
2023/10/01 04:40:31;;;;;;;8.80;5.07;;;;;;;15.39;71.26;95008.66;5152608;27;20198;-43
2023/10/01 04:43:01;;;;;;;9.73;5.13;;;;;;;15.44;71.10;95016.72;5152176;27;20230;-45
2023/10/01 04:45:36;;;;;;;9.30;5.63;;;;;;;15.46;71.35;95019.94;5152971;27;20231;-45
2023/10/01 04:48:13;;;;;;;6.97;5.07;;;;;;;15.45;71.36;95010.56;5152498;27;20219;-45
2023/10/01 04:50:40;;;;;;;9.87;5.20;;;;;;;15.49;70.99;95022.19;5152543;27;20210;-45
2023/10/01 04:53:07;;;;;;;7.33;5.37;;;;;;;15.45;71.05;95015.72;5152259;27;20186;-46
2023/10/01 04:55:41;;;;;;;6.47;5.40;;;;;;;15.54;70.98;95025.13;5152500;27;20184;-43
2023/10/01 04:58:08;;;;;;;9.90;5.30;;;;;;;15.61;70.75;95032.19;5151782;27;20188;-44
2023/10/01 05:00:36;;;;;;;9.53;5.60;;;;;;;15.70;70.52;95036.41;5152261;27;20795;-44
2023/10/01 05:03:06;;;;;;;8.63;5.30;;;;;;;15.84;69.32;95029.81;5152632;27;20206;-46
2023/10/01 05:05:36;;;;;;;8.30;5.47;;;;;;;15.92;69.09;95034.97;5152587;27;20180;-45
2023/10/01 05:08:04;;;;;;;8.23;5.37;;;;;;;15.74;69.39;95007.56;5152102;27;20199;-45
2023/10/01 05:10:50;;;;;;;7.87;5.47;;;;;;;16.05;69.01;95046.41;5152478;27;20275;-45
2023/10/01 05:13:19;;;;;;;8.63;5.67;;;;;;;16.29;68.36;95050.75;5152086;27;20188;-46
2023/10/01 05:15:49;;;;;;;7.53;5.87;;;;;;;16.53;67.81;95049.88;5152026;27;20279;-46
2023/10/01 05:18:17;;;;;;;7.97;5.43;;;;;;;16.75;67.04;95051.00;5152012;27;20188;-45
2023/10/01 05:20:45;;;;;;;14.03;5.87;;;;;;;16.89;66.74;95056.44;5152179;27;20216;-47
2023/10/01 05:23:12;;;;;;;6.77;5.43;;;;;;;16.95;66.34;95056.56;5152151;27;20643;-45
2023/10/01 05:25:45;;;;;;;8.70;6.00;;;;;;;16.96;66.23;95060.75;5152425;27;20279;-44
2023/10/01 05:28:23;;;;;;;7.40;5.83;;;;;;;16.97;66.23;95066.75;5151615;27;20219;-46
2023/10/01 05:30:57;;;;;;;9.77;5.73;;;;;;;16.47;66.58;94998.09;5151941;27;20390;-44
2023/10/01 05:33:25;;;;;;;12.87;6.10;;;;;;;16.92;66.49;95069.78;5151895;27;20795;-44
2023/10/01 05:35:57;;;;;;;9.57;5.73;;;;;;;16.97;66.60;95072.72;5151967;27;20195;-44
2023/10/01 05:38:26;;;;;;;11.93;5.50;;;;;;;17.13;66.19;95076.97;5151529;27;20683;-46
2023/10/01 05:40:54;;;;;;;16.33;5.73;;;;;;;17.32;65.89;95074.97;5151995;27;20231;-46
2023/10/01 05:43:27;;;;;;;7.30;5.83;;;;;;;17.61;65.00;95074.31;5151419;27;20278;-45
2023/10/01 05:46:01;;;;;;;7.30;5.13;;;;;;;17.92;63.85;95082.88;5152076;27;20191;-44
2023/10/01 05:48:29;;;;;;;12.00;5.73;;;;;;;18.22;62.94;95078.59;5151457;27;20221;-46
2023/10/01 05:50:58;;;;;;;8.93;5.43;;;;;;;18.42;62.13;95052.19;5151536;27;20640;-46
2023/10/01 05:53:25;;;;;;;8.00;5.53;;;;;;;18.79;60.65;95072.88;5151377;27;20193;-46
2023/10/01 05:55:52;;;;;;;9.63;5.00;;;;;;;19.00;60.35;95076.53;5151404;27;20208;-45
2023/10/01 05:58:21;;;;;;;12.20;5.73;;;;;;;19.24;59.56;95075.41;5151614;27;20192;-47
2023/10/01 06:01:05;;;;;;;7.80;5.53;;;;;;;19.47;58.65;95075.28;5151405;27;20308;-46
2023/10/01 06:03:34;;;;;;;6.40;5.20;;;;;;;19.71;58.35;95076.75;5151166;27;20191;-47
2023/10/01 06:06:07;;;;;;;14.97;5.77;;;;;;;19.78;57.72;95049.88;5151428;27;20194;-47
2023/10/01 06:08:33;;;;;;;7.27;5.33;;;;;;;20.17;57.10;95071.19;5150974;27;20198;-48
2023/10/01 06:11:06;;;;;;;10.45;5.38;;;;;;;20.41;55.97;95072.56;5150549;27;20191;-45
2023/10/01 06:13:35;;;;;;;8.25;4.85;;;;;;;20.47;55.74;95077.81;5150991;27;20214;-46
2023/10/01 06:16:11;;;;;;;9.60;4.95;;;;;;;20.63;55.42;95079.34;5151505;27;20195;-48
2023/10/01 06:18:42;;;;;;;12.18;6.05;;;;;;;20.82;54.91;95061.47;5151071;27;20578;-45
2023/10/01 06:21:10;;;;;;;12.20;5.63;;;;;;;21.00;54.20;95067.75;5151279;27;20218;-47
2023/10/01 06:23:49;;;;;;;13.40;4.75;;;;;;;21.15;53.98;95070.22;5150919;27;20664;-47
2023/10/01 06:26:18;;;;;;;12.25;5.72;;;;;;;21.33;53.71;95071.50;5151303;27;20225;-47
2023/10/01 06:28:45;;;;;;;7.72;4.93;;;;;;;21.50;53.42;95071.00;5150852;27;20248;-46
2023/10/01 06:31:11;;;;;;;10.35;5.20;;;;;;;21.69;52.99;95066.81;5151061;27;20248;-46
2023/10/01 06:33:40;;;;;;;8.30;5.60;;;;;;;21.96;53.09;95072.88;5150760;27;20221;-46
2023/10/01 06:36:16;;;;;;;7.15;4.95;;;;;;;22.20;52.56;95079.34;5150953;27;20652;-47
2023/10/01 06:38:45;;;;;;;9.30;5.85;;;;;;;22.34;52.08;95067.13;5150795;27;20198;-46
2023/10/01 06:41:16;;;;;;;12.95;6.13;;;;;;;22.52;52.18;95077.72;5151098;27;20203;-45
2023/10/01 06:43:49;;;;;;;11.68;5.30;;;;;;;22.85;51.38;95081.28;5150394;27;20224;-46
2023/10/01 06:46:22;;;;;;;10.60;5.45;;;;;;;23.12;51.05;95077.63;5150956;27;20186;-46
2023/10/01 06:48:51;;;;;;;9.93;6.15;;;;;;;23.17;50.77;95050.91;5151027;27;20547;-47
2023/10/01 06:51:21;;;;;;;7.22;6.53;;;;;;;23.50;50.01;95085.50;5150981;27;20219;-47
2023/10/01 06:53:53;;;;;;;14.32;6.80;;;;;;;23.59;50.08;95093.09;5150881;27;20187;-46
2023/10/01 06:56:21;;;;;;;10.85;5.53;;;;;;;23.63;50.16;95095.09;5151043;27;20191;-46
2023/10/01 07:01:42;;;;;;;12.27;5.95;;;;;;;23.67;49.90;95067.59;5150650;27;20246;-47
2023/10/01 07:04:11;;;;;;;8.60;6.63;;;;;;;23.92;49.78;95101.59;5150977;27;20207;-47
2023/10/01 07:06:38;;;;;;;10.05;6.70;;;;;;;24.01;50.28;95095.09;5150319;27;20278;-46
2023/10/01 07:09:07;;;;;;;12.68;6.88;;;;;;;24.15;50.07;95108.06;5150549;27;20191;-46
2023/10/01 07:11:36;;;;;;;13.27;6.97;;;;;;;23.41;50.52;94966.69;5150295;27;20655;-47
2023/10/01 07:14:03;;;;;;;10.23;7.32;;;;;;;24.51;49.74;95112.66;5149953;27;20742;-47
2023/10/01 07:16:39;;;;;;;10.40;7.35;;;;;;;24.40;49.77;95103.69;5150099;27;20223;-45
2023/10/01 07:19:10;;;;;;;11.98;7.47;;;;;;;24.35;50.92;95113.16;5150208;27;20191;-47
2023/10/01 07:21:41;;;;;;;8.80;7.65;;;;;;;24.56;50.74;95109.41;5152320;27;20223;-46
2023/10/01 07:24:10;;;;;;;14.80;8.60;;;;;;;24.55;50.72;95099.94;5154672;27;20180;-47
2023/10/01 07:26:40;;;;;;;11.98;7.53;;;;;;;24.49;50.78;95109.47;5154042;27;20222;-47
2023/10/01 07:29:07;;;;;;;10.93;7.53;;;;;;;24.46;51.27;95102.03;5154217;27;20269;-46
2023/10/01 07:31:36;;;;;;;15.25;8.02;;;;;;;24.56;50.87;95110.19;5154211;27;20184;-45
2023/10/01 07:34:12;;;;;;;10.25;7.47;;;;;;;24.64;50.82;95106.50;5154258;27;20192;-45
2023/10/01 07:36:42;;;;;;;9.77;7.30;;;;;;;24.80;50.60;95105.97;5153911;27;20228;-46
2023/10/01 07:39:09;;;;;;;15.63;8.20;;;;;;;24.85;50.16;95103.50;5153992;27;20219;-46
2023/10/01 07:41:39;;;;;;;11.00;7.85;;;;;;;24.86;50.89;95115.56;5154212;27;20218;-46
2023/10/01 07:44:09;;;;;;;11.57;7.95;;;;;;;24.95;50.55;95110.84;5153677;27;20188;-45
2023/10/01 07:46:36;;;;;;;10.73;8.05;;;;;;;25.08;50.24;95109.91;5154122;27;20632;-46
2023/10/01 07:49:03;;;;;;;16.70;9.82;;;;;;;25.24;49.99;95109.38;5154344;27;20214;-46
2023/10/01 07:51:35;;;;;;;12.65;8.73;;;;;;;25.38;49.97;95107.38;5154163;27;20201;-47
2023/10/01 07:54:09;;;;;;;13.13;8.10;;;;;;;25.31;49.92;95099.63;5153819;27;20244;-47
2023/10/01 07:56:39;;;;;;;14.50;8.80;;;;;;;25.32;50.56;95105.66;5153809;27;20191;-46
2023/10/01 07:59:28;;;;;;;16.42;8.18;;;;;;;25.33;50.18;95108.03;5153706;27;20199;-45
2023/10/01 08:02:19;;;;;;;10.20;7.82;;;;;;;25.31;50.29;95114.53;5153380;27;20226;-46
2023/10/01 08:04:58;;;;;;;11.95;8.35;;;;;;;25.17;49.68;95085.91;5153897;27;20260;-46
2023/10/01 08:07:31;;;;;;;15.02;7.97;;;;;;;25.32;50.63;95114.31;5153418;27;20196;-46
2023/10/01 08:10:04;;;;;;;16.08;8.60;;;;;;;25.38;50.01;95123.09;5153449;27;20219;-46
2023/10/01 08:12:56;;;;;;;14.52;9.32;;;;;;;25.46;50.62;95114.94;5153372;27;20664;-46
2023/10/01 08:15:29;;;;;;;18.88;8.65;;;;;;;25.55;50.60;95121.47;5153038;27;20223;-46
2023/10/01 08:17:57;;;;;;;12.02;8.88;;;;;;;25.56;50.34;95107.38;5153329;27;20191;-45
2023/10/01 08:20:31;;;;;;;13.63;9.63;;;;;;;25.61;50.25;95117.22;5153462;27;20260;-46
2023/10/01 08:25:43;;;;;;;15.77;9.55;;;;;;;25.75;50.17;95116.00;5152811;27;20190;-45
2023/10/01 08:31:01;;;;;;;14.07;9.88;;;;;;;25.69;50.16;95117.69;5152288;27;20195;-46
2023/10/01 08:33:32;;;;;;;13.80;8.70;;;;;;;25.65;50.33;95108.69;5151820;27;20203;-46
2023/10/01 08:36:12;;;;;;;16.52;8.63;;;;;;;25.68;50.50;95116.06;5152753;27;20236;-47
2023/10/01 08:38:38;;;;;;;19.25;9.00;;;;;;;25.57;50.68;95106.38;5152672;27;20318;-46
2023/10/01 08:41:07;;;;;;;14.63;8.38;;;;;;;25.52;50.89;95114.09;5152843;27;20719;-46
2023/10/01 08:43:35;;;;;;;17.80;9.00;;;;;;;25.43;50.35;95103.13;5152907;27;20230;-47
2023/10/01 08:46:09;;;;;;;14.75;8.77;;;;;;;25.23;50.78;95116.41;5152741;27;20260;-46
2023/10/01 08:48:39;;;;;;;12.32;8.55;;;;;;;25.15;51.72;95108.06;5152393;27;20191;-47
2023/10/01 08:51:11;;;;;;;12.00;8.23;;;;;;;24.90;51.90;95076.69;5152557;27;20209;-45
2023/10/01 08:53:41;;;;;;;16.58;9.05;;;;;;;25.20;51.27;95109.00;5152719;27;20192;-46
2023/10/01 08:56:13;;;;;;;16.08;8.70;;;;;;;25.15;51.33;95095.75;5152799;27;20274;-45
2023/10/01 08:58:48;;;;;;;15.98;9.07;;;;;;;25.30;51.24;95105.06;5152322;27;20219;-45
2023/10/01 09:01:19;;;;;;;15.45;7.95;;;;;;;25.34;51.08;95099.16;5152318;27;20230;-46
2023/10/01 09:03:48;;;;;;;13.32;7.88;;;;;;;25.44;50.37;95115.19;5152144;27;20206;-46
2023/10/01 09:06:26;;;;;;;10.77;7.60;;;;;;;25.48;49.92;95108.47;5152429;27;20183;-47
2023/10/01 09:08:54;;;;;;;11.82;7.65;;;;;;;25.24;49.06;95072.72;5152228;27;20267;-46
2023/10/01 09:11:35;;;;;;;10.18;7.38;;;;;;;25.43;49.36;95097.88;5152445;27;20195;-48
2023/10/01 09:14:17;;;;;;;12.82;7.45;;;;;;;25.43;49.29;95107.53;5151878;27;20191;-47
2023/10/01 09:16:44;;;;;;;23.83;7.63;;;;;;;25.28;49.36;95107.91;5152266;27;20210;-46
2023/10/01 09:21:55;;;;;;;13.27;7.63;;;;;;;25.05;49.77;95100.69;5151165;27;20302;-46
2023/10/01 09:24:38;;;;;;;10.13;7.15;;;;;;;25.09;49.74;95114.19;5151813;27;20203;-45
2023/10/01 09:27:18;;;;;;;11.73;7.13;;;;;;;25.03;49.77;95121.03;5151874;27;20184;-46
2023/10/01 09:29:45;;;;;;;12.73;7.55;;;;;;;24.95;49.93;95116.06;5152459;27;20263;-46
2023/10/01 09:32:13;;;;;;;15.95;7.43;;;;;;;25.05;50.19;95111.16;5151969;27;20252;-46
2023/10/01 09:34:47;;;;;;;14.23;8.75;;;;;;;25.06;50.01;95117.19;5151775;27;20545;-45
2023/10/01 09:37:33;;;;;;;13.38;8.57;;;;;;;24.98;49.80;95115.66;5151489;27;20187;-46
2023/10/01 09:40:05;;;;;;;12.02;7.72;;;;;;;24.95;50.08;95116.88;5152220;27;20632;-45
2023/10/01 09:42:44;;;;;;;12.93;8.20;;;;;;;24.91;49.82;95113.09;5151736;27;20214;-46
2023/10/01 09:45:26;;;;;;;12.40;8.18;;;;;;;24.94;49.11;95112.66;5151800;27;20221;-46
2023/10/01 09:48:04;;;;;;;13.10;9.02;;;;;;;24.96;48.97;95117.69;5151582;27;20644;-45
2023/10/01 09:50:39;;;;;;;14.50;8.32;;;;;;;24.99;48.88;95115.41;5151873;27;20215;-46
2023/10/01 09:53:12;;;;;;;13.57;8.13;;;;;;;25.03;48.16;95108.75;5152284;27;20205;-46
2023/10/01 09:55:47;;;;;;;15.40;7.75;;;;;;;25.03;48.43;95115.78;5151607;27;20578;-47
2023/10/01 09:58:24;;;;;;;12.45;7.75;;;;;;;24.92;47.96;95100.81;5151403;27;20191;-44
2023/10/01 10:00:52;;;;;;;16.10;8.48;;;;;;;24.90;48.25;95108.06;5151687;27;20184;-44
2023/10/01 10:03:19;;;;;;;16.92;8.40;;;;;;;24.88;49.21;95097.84;5151126;27;20751;-47
2023/10/01 10:05:47;;;;;;;12.07;7.70;;;;;;;24.98;47.37;95100.75;5151318;27;20188;-45
2023/10/01 10:08:15;;;;;;;15.23;7.40;;;;;;;25.01;47.46;95097.69;5151118;27;20275;-46
2023/10/01 10:10:48;;;;;;;8.85;7.03;;;;;;;25.02;48.17;95101.13;5150989;27;20234;-49
2023/10/01 10:13:45;;;;;;;11.55;7.03;;;;;;;25.03;46.46;95098.28;5151306;27;20198;-46
2023/10/01 10:16:32;;;;;;;7.68;5.88;;;;;;;24.95;45.74;95100.38;5151248;27;20240;-46
2023/10/01 10:19:12;;;;;;;8.50;6.15;;;;;;;24.93;46.44;95086.72;5135531;27;20625;-45
2023/10/01 10:22:25;;;;;;;10.90;7.30;;;;;;;24.92;47.04;95085.94;5151173;27;20234;-45
2023/10/01 10:25:22;;;;;;;9.80;6.95;;;;;;;25.02;48.13;95077.56;5150798;27;20192;-46
2023/10/01 10:27:50;;;;;;;10.90;7.65;;;;;;;25.14;48.12;95077.66;5150622;27;20219;-46
2023/10/01 10:30:21;;;;;;;8.35;6.40;;;;;;;25.18;47.49;95068.38;5151092;27;20219;-46
2023/10/01 10:33:38;;;;;;;10.57;7.05;;;;;;;25.26;47.24;95062.84;5150732;27;20184;-45
2023/10/01 10:36:58;;;;;;;10.57;7.03;;;;;;;25.37;47.37;95069.94;5150855;27;20229;-44
2023/10/01 10:40:12;;;;;;;10.05;6.47;;;;;;;25.51;46.33;95065.31;5150879;27;20184;-46
2023/10/01 10:42:40;;;;;;;8.45;5.88;;;;;;;25.36;46.62;95057.88;5150603;27;20227;-47
2023/10/01 10:45:20;;;;;;;10.38;6.78;;;;;;;25.14;46.71;95038.41;5150876;27;20183;-44
2023/10/01 10:47:58;;;;;;;11.73;6.53;;;;;;;25.19;47.34;95057.66;5150214;27;20202;-45
2023/10/01 10:50:39;;;;;;;11.23;8.05;;;;;;;25.29;46.70;95057.13;5150863;27;20216;-46
2023/10/01 10:53:14;;;;;;;15.35;7.07;;;;;;;25.35;46.91;95058.91;5150777;27;20282;-47
2023/10/01 10:55:50;;;;;;;12.40;7.13;;;;;;;25.21;47.22;95054.81;5151779;27;20636;-59
2023/10/01 10:58:16;;;;;;;8.88;6.82;;;;;;;25.18;47.62;95050.84;5154822;27;20194;-46
2023/10/01 11:00:44;;;;;;;11.77;7.15;;;;;;;25.17;47.50;95044.00;5154644;27;20236;-46
2023/10/01 11:03:11;;;;;;;9.73;7.45;;;;;;;25.21;47.80;95039.09;5154682;27;20692;-46
2023/10/01 11:05:49;;;;;;;14.27;8.10;;;;;;;25.27;47.83;95043.47;5154730;27;20648;-46
2023/10/01 11:08:25;;;;;;;13.40;7.88;;;;;;;25.06;47.60;95038.66;5155176;27;20187;-46
2023/10/01 11:10:55;;;;;;;11.02;7.85;;;;;;;24.93;48.14;95032.56;5154504;27;20191;-46
2023/10/01 11:13:38;;;;;;;13.23;7.65;;;;;;;24.87;47.98;95030.84;5154421;27;20187;-46
2023/10/01 11:16:14;;;;;;;14.82;7.88;;;;;;;24.87;48.48;95027.38;5154615;27;20188;-46
2023/10/01 11:18:44;;;;;;;14.27;7.72;;;;;;;24.82;48.78;95022.03;5154816;27;20233;-46
2023/10/01 11:21:20;;;;;;;21.35;8.63;;;;;;;25.02;48.13;95026.00;5154799;27;20186;-48
2023/10/01 11:23:53;;;;;;;11.18;7.28;;;;;;;25.13;48.36;95011.44;5154955;27;20908;-47
2023/10/01 11:26:29;;;;;;;13.90;8.32;;;;;;;25.16;48.27;95025.88;5155844;27;20183;-48
2023/10/01 11:29:00;;;;;;;13.45;7.97;;;;;;;25.10;48.59;95026.78;5156091;27;20223;-47
2023/10/01 11:31:31;;;;;;;11.02;7.60;;;;;;;25.04;48.45;95012.69;5155454;27;20194;-45
2023/10/01 11:33:58;;;;;;;16.05;7.57;;;;;;;24.99;48.81;95010.75;5155450;27;20546;-46
2023/10/01 11:36:35;;;;;;;11.43;7.03;;;;;;;24.92;49.21;95017.09;5153903;27;20192;-45
2023/10/01 11:39:03;;;;;;;8.68;7.13;;;;;;;24.78;49.72;95019.84;5154794;27;20194;-45
2023/10/01 11:41:38;;;;;;;18.20;7.78;;;;;;;24.66;50.08;95026.81;5154062;27;20223;-46
2023/10/01 11:44:08;;;;;;;12.25;7.35;;;;;;;24.42;50.51;94999.69;5153983;27;20624;-45
2023/10/01 11:46:56;;;;;;;10.77;8.10;;;;;;;24.43;51.28;95019.59;5153541;27;20191;-45
2023/10/01 11:49:32;;;;;;;20.50;8.00;;;;;;;24.30;51.49;95017.06;5153855;27;20194;-46
2023/10/01 11:52:02;;;;;;;14.70;7.57;;;;;;;24.42;51.40;95019.81;5153672;27;20688;-46
2023/10/01 11:54:44;;;;;;;11.07;7.68;;;;;;;24.48;51.20;94998.84;5153530;27;20271;-47
2023/10/01 11:57:22;;;;;;;11.20;7.20;;;;;;;24.83;50.56;95013.16;5153649;27;20215;-45
2023/10/01 11:59:54;;;;;;;17.40;6.80;;;;;;;24.95;50.02;95008.78;5153768;27;20206;-45
2023/10/01 12:02:25;;;;;;;10.98;7.38;;;;;;;25.01;49.40;95010.53;5153448;27;20188;-45
2023/10/01 12:04:57;;;;;;;10.27;6.85;;;;;;;24.84;49.30;94999.06;5153415;27;20234;-46
2023/10/01 12:07:26;;;;;;;14.20;8.05;;;;;;;24.86;49.53;95005.66;5152071;27;20231;-45
2023/10/01 12:09:55;;;;;;;11.85;7.00;;;;;;;24.72;50.02;95005.03;5152993;27;20187;-47
2023/10/01 12:12:25;;;;;;;9.63;7.03;;;;;;;24.51;50.30;94997.59;5153362;27;20192;-45
2023/10/01 12:14:55;;;;;;;12.38;7.35;;;;;;;24.51;49.81;95002.81;5153205;27;20188;-46